Topsail Beach, North Carolina
Current Conditions -  °F | °C
As of 11:56 AM on Tuesday 27 Jan 2015 (Local Time) from KNCA Reporting Station
Overcast Overcast  
Wind Chill: 31°   Ceiling: 2900
Heat Index: 40°   Visibility: 10mi
Dew Point: 28°   Wind: 16mph
Humidity: 63%   Direction: 340°NNW
Pressure: 29.79"   Gusts: 26mph
Location:  34.4895°N, 77.514°W
Report Text: KNCA 271656Z 34014G23KT 10SM OVC029 04/M02 A2979 RMK AO2 SLP089 T00441022
Loading
Personal Weather Stations






























Interactive Weather Map New forecast layout! Learn more

10-Day Weather Forecast

Advertisements
Track Severe Weather on mobile